Time;durP1;ratioP1;P1;durP2;ratioP2;P2;SDS_P1;SDS_P2;PMS_P1;PMS_P2;Temp;Humidity;BMP_temperature;BMP_pressure;BME280_temperature;BME280_humidity;BME280_pressure;Samples;Min_cycle;Max_cycle;Signal;HPM_P1;HPM_P2
2022/12/06 00:00:48;;;;;;;;;;;;;;;;;;5031468;28;19923;-73
2022/12/06 00:03:34;;;;;;;;;;;;;;;;;;5032205;28;19921;-74
2022/12/06 00:06:21;;;;;;;;;;;;;;;;;;5032334;28;19917;-74
2022/12/06 00:09:07;;;;;;;;;;;;;;;;;;5022081;28;20392;-75
2022/12/06 00:11:54;;;;;;;;;;;;;;;;;;5036728;28;20459;-75
2022/12/06 00:14:40;;;;;;;;;;;;;;;;;;5037236;28;19917;-73
2022/12/06 00:17:27;;;;;;;;;;;;;;;;;;5033523;28;19921;-74
2022/12/06 00:20:13;;;;;;;;;;;;;;;;;;5035821;28;19920;-74
2022/12/06 00:23:00;;;;;;;;;;;;;;;;;;5032483;28;19925;-74
2022/12/06 00:25:46;;;;;;;;;;;;;;;;;;5031062;28;19913;-74
2022/12/06 00:28:33;;;;;;;;;;;;;;;;;;5033888;28;19916;-73
2022/12/06 00:31:19;;;;;;;;;;;;;;;;;;5032987;28;19943;-73
2022/12/06 00:34:06;;;;;;;;;;;;;;;;;;5039053;28;19940;-73
2022/12/06 00:36:52;;;;;;;;;;;;;;;;;;5026917;28;21248;-74
2022/12/06 00:39:39;;;;;;;;;;;;;;;;;;5033435;28;19928;-73
2022/12/06 00:42:25;;;;;;;;;;;;;;;;;;5030578;28;20351;-73
2022/12/06 00:45:12;;;;;;;;;;;;;;;;;;5028941;28;19924;-74
2022/12/06 00:47:58;;;;;;;;;;;;;;;;;;5026013;28;19921;-74
2022/12/06 00:50:45;;;;;;;;;;;;;;;;;;5033952;28;19919;-74
2022/12/06 00:53:31;;;;;;;;;;;;;;;;;;5028053;28;19921;-74
2022/12/06 00:56:18;;;;;;;;;;;;;;;;;;5027502;28;19917;-74
2022/12/06 00:59:04;;;;;;;;;;;;;;;;;;5028417;28;19913;-74
2022/12/06 01:01:51;;;;;;;;;;;;;;;;;;5024211;28;19920;-74
2022/12/06 01:04:38;;;;;;;;;;;;;;;;;;5025077;28;19914;-73
2022/12/06 01:07:24;;;;;;;;;;;;;;;;;;5031429;28;19917;-74
2022/12/06 01:10:10;;;;;;;;;;;;;;;;;;5028058;28;20336;-73
2022/12/06 01:12:57;;;;;;;;;;;;;;;;;;5022298;28;20368;-75
2022/12/06 01:15:43;;;;;;;;;;;;;;;;;;5024488;28;19924;-74
2022/12/06 01:18:30;;;;;;;;;;;;;;;;;;5031938;28;19920;-74
2022/12/06 01:21:16;;;;;;;;;;;;;;;;;;5032756;28;20288;-74
2022/12/06 01:24:03;;;;;;;;;;;;;;;;;;5027874;28;19928;-75
2022/12/06 01:26:49;;;;;;;;;;;;;;;;;;5026073;28;20364;-74
2022/12/06 01:29:36;;;;;;;;;;;;;;;;;;5036722;28;19913;-74
2022/12/06 01:32:22;;;;;;;;;;;;;;;;;;5035656;28;20589;-74
2022/12/06 01:35:09;;;;;;;;;;;;;;;;;;5026906;28;19917;-74
2022/12/06 01:37:55;;;;;;;;;;;;;;;;;;5030539;28;19935;-75
2022/12/06 01:40:42;;;;;;;;;;;;;;;;;;5033789;28;19916;-75
2022/12/06 01:43:28;;;;;;;;;;;;;;;;;;5029417;28;19924;-74
2022/12/06 01:46:15;;;;;;;;;;;;;;;;;;5036858;28;19920;-74
2022/12/06 01:49:01;;;;;;;;;;;;;;;;;;5034804;28;19912;-73
2022/12/06 01:51:47;;;;;;;;;;;;;;;;;;5030293;28;19932;-75
2022/12/06 01:54:34;;;;;;;;;;;;;;;;;;5034140;28;19921;-74
2022/12/06 01:57:20;;;;;;;;;;;;;;;;;;5029888;28;19913;-74
2022/12/06 02:00:07;;;;;;;;;;;;;;;;;;5038291;28;19913;-74
2022/12/06 02:02:53;;;;;;;;;;;;;;;;;;5024308;28;19937;-73
2022/12/06 02:05:40;;;;;;;;;;;;;;;;;;5031628;28;19921;-74
2022/12/06 02:08:26;;;;;;;;;;;;;;;;;;5029391;28;19963;-74
2022/12/06 02:11:13;;;;;;;;;;;;;;;;;;5029865;28;19913;-74
2022/12/06 02:13:59;;;;;;;;;;;;;;;;;;5031966;28;19952;-74
2022/12/06 02:16:46;;;;;;;;;;;;;;;;;;5027064;28;19913;-75
2022/12/06 02:19:32;;;;;;;;;;;;;;;;;;5031085;28;19940;-74
2022/12/06 02:22:19;;;;;;;;;;;;;;;;;;5032093;28;20388;-74
2022/12/06 02:25:05;;;;;;;;;;;;;;;;;;5038101;28;19923;-75
2022/12/06 02:27:52;;;;;;;;;;;;;;;;;;5045144;28;19912;-74
2022/12/06 02:30:38;;;;;;;;;;;;;;;;;;5035128;28;19921;-76
2022/12/06 02:33:25;;;;;;;;;;;;;;;;;;5045259;28;20138;-74
2022/12/06 02:36:11;;;;;;;;;;;;;;;;;;5038312;28;20359;-75
2022/12/06 02:38:57;;;;;;;;;;;;;;;;;;5042806;28;19917;-75
2022/12/06 02:41:44;;;;;;;;;;;;;;;;;;5039758;28;20284;-75
2022/12/06 02:44:30;;;;;;;;;;;;;;;;;;5038202;28;19917;-74
2022/12/06 02:47:17;;;;;;;;;;;;;;;;;;5031866;28;20337;-74
2022/12/06 02:50:03;;;;;;;;;;;;;;;;;;5029131;28;20416;-74
2022/12/06 02:52:50;;;;;;;;;;;;;;;;;;5040887;28;19924;-74
2022/12/06 02:55:36;;;;;;;;;;;;;;;;;;5040679;28;20225;-75
2022/12/06 02:58:23;;;;;;;;;;;;;;;;;;5043608;28;19913;-74
2022/12/06 03:01:09;;;;;;;;;;;;;;;;;;5026207;28;19939;-73
2022/12/06 03:03:56;;;;;;;;;;;;;;;;;;5035674;28;19972;-73
2022/12/06 03:06:42;;;;;;;;;;;;;;;;;;5044341;28;19936;-73
2022/12/06 03:09:29;;;;;;;;;;;;;;;;;;5041760;28;19925;-75
2022/12/06 03:12:15;;;;;;;;;;;;;;;;;;5043587;28;19925;-75
2022/12/06 03:15:02;;;;;;;;;;;;;;;;;;5041385;28;19909;-74
2022/12/06 03:17:48;;;;;;;;;;;;;;;;;;5045460;28;19913;-75
2022/12/06 03:20:41;;;;;;;;;;;;;;;;;;5028802;28;19967;-73
2022/12/06 03:23:28;;;;;;;;;;;;;;;;;;5045183;28;20395;-75
2022/12/06 03:26:14;;;;;;;;;;;;;;;;;;5041086;28;19920;-74
2022/12/06 03:29:00;;;;;;;;;;;;;;;;;;5040189;28;20395;-75
2022/12/06 03:31:47;;;;;;;;;;;;;;;;;;5041927;28;19924;-75
2022/12/06 03:34:33;;;;;;;;;;;;;;;;;;5043137;28;20962;-74
2022/12/06 03:37:20;;;;;;;;;;;;;;;;;;5046157;28;19916;-73
2022/12/06 03:40:06;;;;;;;;;;;;;;;;;;5043758;28;19912;-74
2022/12/06 03:42:53;;;;;;;;;;;;;;;;;;5041728;28;19913;-74
2022/12/06 03:45:39;;;;;;;;;;;;;;;;;;5037804;28;19931;-74
2022/12/06 03:48:26;;;;;;;;;;;;;;;;;;5034663;28;19924;-74
2022/12/06 03:51:12;;;;;;;;;;;;;;;;;;5040444;28;19913;-74
2022/12/06 03:53:59;;;;;;;;;;;;;;;;;;5041226;28;19929;-74
2022/12/06 03:56:45;;;;;;;;;;;;;;;;;;5040785;28;20288;-74
2022/12/06 03:59:32;;;;;;;;;;;;;;;;;;5043290;28;19919;-75
2022/12/06 04:02:18;;;;;;;;;;;;;;;;;;5036617;28;20313;-75
2022/12/06 04:05:05;;;;;;;;;;;;;;;;;;5042713;28;19924;-74
2022/12/06 04:07:51;;;;;;;;;;;;;;;;;;5033743;28;19920;-73
2022/12/06 04:10:38;;;;;;;;;;;;;;;;;;5036309;28;19947;-73
2022/12/06 04:13:24;;;;;;;;;;;;;;;;;;5021491;28;19935;-73
2022/12/06 04:19:16;;;;;;;;;;;;;;;;;;5034737;28;20281;-73
2022/12/06 04:25:07;;;;;;;;;;;;;;;;;;5038268;28;19920;-74
2022/12/06 04:40:15;;;;;;;;;;;;;;;;;;5041085;28;19932;-75
2022/12/06 04:46:07;;;;;;;;;;;;;;;;;;5039793;28;19920;-77
2022/12/06 04:48:53;;;;;;;;;;;;;;;;;;5042999;28;19916;-76
2022/12/06 04:51:40;;;;;;;;;;;;;;;;;;5032051;28;19928;-75
2022/12/06 04:54:29;;;;;;;;;;;;;;;;;;5028907;28;19976;-75
2022/12/06 04:57:16;;;;;;;;;;;;;;;;;;5040405;28;20384;-75
2022/12/06 05:00:02;;;;;;;;;;;;;;;;;;5031887;28;19917;-77
2022/12/06 05:02:49;;;;;;;;;;;;;;;;;;5043399;28;19972;-75
2022/12/06 05:05:35;;;;;;;;;;;;;;;;;;5035781;28;20309;-75
2022/12/06 05:08:21;;;;;;;;;;;;;;;;;;5041663;28;19913;-76
2022/12/06 05:11:08;;;;;;;;;;;;;;;;;;5040963;28;19909;-75
2022/12/06 05:13:54;;;;;;;;;;;;;;;;;;5038876;28;19932;-75
2022/12/06 05:16:41;;;;;;;;;;;;;;;;;;5027351;28;19917;-75
2022/12/06 05:19:27;;;;;;;;;;;;;;;;;;5033935;28;20041;-76
2022/12/06 05:22:14;;;;;;;;;;;;;;;;;;5035567;28;19920;-74
2022/12/06 05:25:00;;;;;;;;;;;;;;;;;;5039445;28;19917;-75
2022/12/06 05:27:47;;;;;;;;;;;;;;;;;;5038159;28;19928;-74
2022/12/06 05:30:33;;;;;;;;;;;;;;;;;;5036063;28;19913;-74
2022/12/06 05:33:20;;;;;;;;;;;;;;;;;;5028009;28;19927;-74
2022/12/06 05:36:07;;;;;;;;;;;;;;;;;;5028000;28;19919;-74
2022/12/06 05:38:53;;;;;;;;;;;;;;;;;;5025810;28;19920;-75
2022/12/06 05:41:40;;;;;;;;;;;;;;;;;;5039495;28;19935;-74
2022/12/06 05:44:26;;;;;;;;;;;;;;;;;;5033416;28;19920;-74
2022/12/06 05:47:12;;;;;;;;;;;;;;;;;;5039353;28;19917;-74
2022/12/06 05:49:59;;;;;;;;;;;;;;;;;;5040048;28;19909;-75
2022/12/06 05:52:45;;;;;;;;;;;;;;;;;;5031283;28;19921;-74
2022/12/06 05:55:32;;;;;;;;;;;;;;;;;;5040010;28;19912;-74
2022/12/06 05:58:18;;;;;;;;;;;;;;;;;;5031993;28;20551;-76
2022/12/06 06:01:05;;;;;;;;;;;;;;;;;;5036717;28;19916;-74
2022/12/06 06:03:51;;;;;;;;;;;;;;;;;;5045143;28;19916;-75
2022/12/06 06:06:38;;;;;;;;;;;;;;;;;;5019480;28;19913;-75
2022/12/06 06:09:26;;;;;;;;;;;;;;;;;;5044531;28;19920;-75
2022/12/06 06:12:12;;;;;;;;;;;;;;;;;;5032496;28;19940;-74
2022/12/06 06:14:59;;;;;;;;;;;;;;;;;;5036751;28;19917;-75
2022/12/06 06:17:45;;;;;;;;;;;;;;;;;;5044876;28;19923;-76
2022/12/06 06:20:32;;;;;;;;;;;;;;;;;;5031929;28;20292;-75
2022/12/06 06:23:18;;;;;;;;;;;;;;;;;;5040696;28;19927;-75
2022/12/06 06:26:07;;;;;;;;;;;;;;;;;;5035869;28;20398;-76
2022/12/06 06:28:53;;;;;;;;;;;;;;;;;;5041687;28;19916;-74
2022/12/06 06:31:40;;;;;;;;;;;;;;;;;;5047948;28;19963;-74
2022/12/06 06:34:26;;;;;;;;;;;;;;;;;;5046485;28;19920;-73
2022/12/06 06:37:13;;;;;;;;;;;;;;;;;;5036106;28;19947;-74
2022/12/06 06:39:59;;;;;;;;;;;;;;;;;;5048184;28;19909;-75
2022/12/06 06:42:46;;;;;;;;;;;;;;;;;;5043131;28;20402;-74
2022/12/06 06:45:32;;;;;;;;;;;;;;;;;;5053494;28;19923;-75
2022/12/06 06:48:19;;;;;;;;;;;;;;;;;;5037217;28;19913;-74
2022/12/06 06:51:05;;;;;;;;;;;;;;;;;;5038958;28;19913;-73
2022/12/06 06:53:52;;;;;;;;;;;;;;;;;;5034361;28;19921;-74
2022/12/06 06:56:38;;;;;;;;;;;;;;;;;;5035938;28;19916;-74
2022/12/06 06:59:24;;;;;;;;;;;;;;;;;;5029829;28;19916;-74
2022/12/06 07:02:11;;;;;;;;;;;;;;;;;;5034213;28;20297;-74
2022/12/06 07:04:58;;;;;;;;;;;;;;;;;;5041050;28;19908;-74
2022/12/06 07:07:45;;;;;;;;;;;;;;;;;;5033387;28;20276;-75
2022/12/06 07:10:31;;;;;;;;;;;;;;;;;;5040034;28;19913;-73
2022/12/06 07:13:19;;;;;;;;;;;;;;;;;;5039704;28;20205;-73
2022/12/06 07:16:05;;;;;;;;;;;;;;;;;;5035786;28;19932;-73
2022/12/06 07:18:52;;;;;;;;;;;;;;;;;;5028544;28;19920;-74
2022/12/06 07:21:38;;;;;;;;;;;;;;;;;;5039759;28;19944;-74
2022/12/06 07:24:25;;;;;;;;;;;;;;;;;;5031825;28;19925;-74
2022/12/06 07:27:11;;;;;;;;;;;;;;;;;;5028599;28;19920;-74
2022/12/06 07:29:58;;;;;;;;;;;;;;;;;;5032513;28;20400;-74
2022/12/06 07:32:44;;;;;;;;;;;;;;;;;;5040336;28;19917;-75
2022/12/06 07:35:31;;;;;;;;;;;;;;;;;;5033182;28;20027;-75
2022/12/06 07:38:17;;;;;;;;;;;;;;;;;;5045763;28;19919;-74
2022/12/06 07:44:59;;;;;;;;;;;;;;;;;;5023647;28;19935;-74
2022/12/06 07:47:16;;;;;;;;;;;;;;;;;;5035990;28;19965;-76
2022/12/06 07:50:02;;;;;;;;;;;;;;;;;;5039874;28;19917;-76
2022/12/06 07:52:49;;;;;;;;;;;;;;;;;;5036723;28;19925;-75
2022/12/06 07:55:36;;;;;;;;;;;;;;;;;;5039938;28;19917;-74
2022/12/06 07:58:22;;;;;;;;;;;;;;;;;;5024216;28;19913;-80
2022/12/06 08:01:09;;;;;;;;;;;;;;;;;;5029843;28;19924;-75
2022/12/06 08:03:55;;;;;;;;;;;;;;;;;;5047001;28;19919;-74
2022/12/06 08:06:42;;;;;;;;;;;;;;;;;;5028986;28;19913;-76
2022/12/06 08:09:28;;;;;;;;;;;;;;;;;;5032360;28;19919;-75
2022/12/06 08:12:15;;;;;;;;;;;;;;;;;;5039645;28;19913;-75
2022/12/06 08:15:01;;;;;;;;;;;;;;;;;;5031366;28;19917;-75
2022/12/06 08:17:47;;;;;;;;;;;;;;;;;;5033811;28;19948;-75
2022/12/06 08:20:34;;;;;;;;;;;;;;;;;;5034435;28;20295;-74
2022/12/06 08:23:20;;;;;;;;;;;;;;;;;;5032183;28;20396;-74
2022/12/06 08:26:07;;;;;;;;;;;;;;;;;;5031259;28;20721;-74
2022/12/06 08:28:53;;;;;;;;;;;;;;;;;;5036259;28;19913;-74
2022/12/06 08:31:40;;;;;;;;;;;;;;;;;;5031697;28;19941;-75
2022/12/06 08:34:26;;;;;;;;;;;;;;;;;;5034281;28;20300;-75
2022/12/06 08:37:13;;;;;;;;;;;;;;;;;;5037539;28;19912;-74
2022/12/06 08:39:59;;;;;;;;;;;;;;;;;;5033118;28;20395;-75
2022/12/06 08:42:46;;;;;;;;;;;;;;;;;;5036342;28;19913;-73
2022/12/06 08:45:32;;;;;;;;;;;;;;;;;;5034432;28;20589;-75
2022/12/06 08:48:19;;;;;;;;;;;;;;;;;;5028555;28;19916;-74
2022/12/06 08:51:05;;;;;;;;;;;;;;;;;;5033727;28;19915;-73
2022/12/06 08:53:52;;;;;;;;;;;;;;;;;;5044521;28;19920;-73
2022/12/06 08:56:38;;;;;;;;;;;;;;;;;;5032783;28;19913;-75
2022/12/06 08:59:25;;;;;;;;;;;;;;;;;;5034635;28;19909;-74
2022/12/06 09:02:11;;;;;;;;;;;;;;;;;;5033094;28;19923;-74
2022/12/06 09:04:57;;;;;;;;;;;;;;;;;;5029973;28;20478;-73
2022/12/06 09:07:44;;;;;;;;;;;;;;;;;;5033287;28;19920;-75
2022/12/06 09:10:30;;;;;;;;;;;;;;;;;;5033354;28;20454;-74
2022/12/06 09:13:17;;;;;;;;;;;;;;;;;;5028858;28;19921;-76
2022/12/06 09:16:03;;;;;;;;;;;;;;;;;;5030127;28;20296;-74
2022/12/06 09:18:50;;;;;;;;;;;;;;;;;;5038540;28;19913;-74
2022/12/06 09:21:38;;;;;;;;;;;;;;;;;;5032720;28;20501;-73
2022/12/06 09:24:24;;;;;;;;;;;;;;;;;;5035427;28;19921;-74
2022/12/06 09:27:11;;;;;;;;;;;;;;;;;;5040936;28;20531;-74
2022/12/06 09:29:57;;;;;;;;;;;;;;;;;;5040958;28;19913;-74
2022/12/06 09:32:44;;;;;;;;;;;;;;;;;;5044223;28;19920;-74
2022/12/06 09:35:30;;;;;;;;;;;;;;;;;;5042776;28;19923;-74
2022/12/06 09:38:17;;;;;;;;;;;;;;;;;;5040281;28;19920;-74
2022/12/06 09:41:03;;;;;;;;;;;;;;;;;;5032577;28;19924;-76
2022/12/06 09:43:50;;;;;;;;;;;;;;;;;;5041198;28;19908;-74
2022/12/06 09:46:36;;;;;;;;;;;;;;;;;;5041453;28;19919;-75
2022/12/06 09:49:23;;;;;;;;;;;;;;;;;;5040394;28;20483;-76
2022/12/06 09:52:10;;;;;;;;;;;;;;;;;;5024755;28;19917;-74
2022/12/06 09:54:56;;;;;;;;;;;;;;;;;;5039990;28;20012;-74
2022/12/06 09:57:43;;;;;;;;;;;;;;;;;;5039954;28;19924;-76
2022/12/06 10:00:29;;;;;;;;;;;;;;;;;;5041139;28;19913;-74
2022/12/06 10:03:16;;;;;;;;;;;;;;;;;;5041004;28;19913;-77
2022/12/06 10:06:02;;;;;;;;;;;;;;;;;;5029871;28;19940;-74
2022/12/06 10:08:49;;;;;;;;;;;;;;;;;;5042340;28;19912;-75
2022/12/06 10:11:35;;;;;;;;;;;;;;;;;;5038241;28;19948;-76
2022/12/06 10:14:22;;;;;;;;;;;;;;;;;;5027224;28;20365;-77
2022/12/06 10:17:08;;;;;;;;;;;;;;;;;;5032831;28;19923;-75
2022/12/06 10:19:55;;;;;;;;;;;;;;;;;;5035065;28;20629;-75
2022/12/06 10:22:41;;;;;;;;;;;;;;;;;;5035129;28;19939;-75
2022/12/06 10:25:28;;;;;;;;;;;;;;;;;;5021915;28;19926;-76
2022/12/06 10:28:14;;;;;;;;;;;;;;;;;;5036918;28;19917;-75
2022/12/06 10:31:03;;;;;;;;;;;;;;;;;;5032715;28;20336;-75
2022/12/06 10:33:49;;;;;;;;;;;;;;;;;;5039348;28;19925;-76
2022/12/06 10:36:35;;;;;;;;;;;;;;;;;;5029525;28;20506;-75
2022/12/06 10:39:22;;;;;;;;;;;;;;;;;;5018783;28;20404;-74
2022/12/06 10:42:08;;;;;;;;;;;;;;;;;;5032981;28;19916;-76
2022/12/06 10:44:55;;;;;;;;;;;;;;;;;;5032349;28;20405;-74
2022/12/06 10:47:41;;;;;;;;;;;;;;;;;;5030602;28;19921;-75
2022/12/06 10:50:28;;;;;;;;;;;;;;;;;;5029218;28;19914;-75
2022/12/06 10:53:14;;;;;;;;;;;;;;;;;;5031232;28;19916;-75
2022/12/06 10:56:01;;;;;;;;;;;;;;;;;;5031388;28;19927;-76
2022/12/06 10:58:47;;;;;;;;;;;;;;;;;;5023035;28;19917;-77
2022/12/06 11:01:34;;;;;;;;;;;;;;;;;;5033587;28;19917;-76
2022/12/06 11:04:20;;;;;;;;;;;;;;;;;;5036656;28;20550;-76
2022/12/06 11:07:07;;;;;;;;;;;;;;;;;;5032148;28;19928;-75
2022/12/06 11:09:53;;;;;;;;;;;;;;;;;;5039954;28;19913;-79
2022/12/06 11:12:40;;;;;;;;;;;;;;;;;;5031496;28;19921;-74
2022/12/06 11:15:26;;;;;;;;;;;;;;;;;;5035143;28;19928;-75
2022/12/06 11:18:13;;;;;;;;;;;;;;;;;;5037050;28;19917;-76
2022/12/06 11:21:02;;;;;;;;;;;;;;;;;;5035723;28;19916;-75
2022/12/06 11:23:48;;;;;;;;;;;;;;;;;;5034539;28;20354;-75
2022/12/06 11:26:35;;;;;;;;;;;;;;;;;;5034062;28;19913;-75
2022/12/06 11:29:21;;;;;;;;;;;;;;;;;;5029883;28;19925;-76
2022/12/06 11:32:08;;;;;;;;;;;;;;;;;;5036702;28;19920;-74
2022/12/06 11:34:54;;;;;;;;;;;;;;;;;;5040479;28;19967;-74
2022/12/06 11:37:41;;;;;;;;;;;;;;;;;;5030888;28;19917;-76
2022/12/06 11:40:27;;;;;;;;;;;;;;;;;;5036452;28;19913;-75
2022/12/06 11:43:14;;;;;;;;;;;;;;;;;;5038865;28;19921;-75
2022/12/06 11:46:00;;;;;;;;;;;;;;;;;;5035874;28;19919;-74
2022/12/06 11:48:47;;;;;;;;;;;;;;;;;;5031885;28;19921;-76
2022/12/06 11:51:33;;;;;;;;;;;;;;;;;;5030929;28;19943;-74
2022/12/06 11:54:20;;;;;;;;;;;;;;;;;;5033948;28;20564;-77
2022/12/06 11:57:06;;;;;;;;;;;;;;;;;;5034262;28;19913;-75
2022/12/06 11:59:53;;;;;;;;;;;;;;;;;;5033011;28;19921;-75
2022/12/06 12:02:39;;;;;;;;;;;;;;;;;;5033259;28;19913;-75
2022/12/06 12:05:29;;;;;;;;;;;;;;;;;;5037074;28;20265;-75
2022/12/06 12:08:15;;;;;;;;;;;;;;;;;;5036949;28;19919;-76
2022/12/06 12:11:03;;;;;;;;;;;;;;;;;;5042070;28;20481;-76
2022/12/06 12:13:49;;;;;;;;;;;;;;;;;;5029240;28;20403;-76
2022/12/06 12:16:36;;;;;;;;;;;;;;;;;;5030047;28;19924;-75
2022/12/06 12:19:22;;;;;;;;;;;;;;;;;;5035375;28;20494;-74
2022/12/06 12:22:09;;;;;;;;;;;;;;;;;;5026137;28;19925;-76
2022/12/06 12:24:56;;;;;;;;;;;;;;;;;;5024377;28;19913;-76
2022/12/06 12:27:43;;;;;;;;;;;;;;;;;;5031219;28;19924;-75
2022/12/06 12:30:33;;;;;;;;;;;;;;;;;;5032687;28;19913;-75
2022/12/06 12:33:19;;;;;;;;;;;;;;;;;;5034213;28;20375;-75
2022/12/06 12:36:06;;;;;;;;;;;;;;;;;;5034877;28;19921;-73
2022/12/06 12:38:52;;;;;;;;;;;;;;;;;;5029191;28;19921;-74
2022/12/06 12:41:39;;;;;;;;;;;;;;;;;;5035485;28;20482;-75
2022/12/06 12:44:25;;;;;;;;;;;;;;;;;;5030052;28;19917;-74
2022/12/06 12:47:12;;;;;;;;;;;;;;;;;;5037775;28;19917;-75
2022/12/06 12:49:58;;;;;;;;;;;;;;;;;;5028751;28;19917;-75
2022/12/06 12:52:45;;;;;;;;;;;;;;;;;;5027627;28;19917;-75
2022/12/06 12:55:32;;;;;;;;;;;;;;;;;;5037087;28;19951;-73
2022/12/06 12:58:18;;;;;;;;;;;;;;;;;;5033784;28;19909;-76
2022/12/06 13:01:05;;;;;;;;;;;;;;;;;;5028369;28;19912;-75
2022/12/06 13:03:51;;;;;;;;;;;;;;;;;;5035825;28;19913;-76
2022/12/06 13:06:38;;;;;;;;;;;;;;;;;;5032380;28;20412;-75
2022/12/06 13:09:24;;;;;;;;;;;;;;;;;;5033995;28;19921;-74
2022/12/06 13:12:11;;;;;;;;;;;;;;;;;;5025705;28;19939;-74
2022/12/06 13:14:57;;;;;;;;;;;;;;;;;;5030827;28;20385;-75
2022/12/06 13:17:44;;;;;;;;;;;;;;;;;;5033545;28;19916;-76
2022/12/06 13:20:30;;;;;;;;;;;;;;;;;;5037982;28;19920;-75
2022/12/06 13:23:17;;;;;;;;;;;;;;;;;;5024911;28;19924;-75
2022/12/06 13:26:04;;;;;;;;;;;;;;;;;;5027520;28;19913;-76
2022/12/06 13:28:50;;;;;;;;;;;;;;;;;;5025241;28;20372;-75
2022/12/06 13:31:38;;;;;;;;;;;;;;;;;;5027592;28;19924;-76
2022/12/06 13:34:25;;;;;;;;;;;;;;;;;;5034479;28;20458;-75
2022/12/06 13:37:11;;;;;;;;;;;;;;;;;;5033066;28;19917;-74
2022/12/06 13:39:58;;;;;;;;;;;;;;;;;;5035396;28;19920;-75
2022/12/06 13:42:44;;;;;;;;;;;;;;;;;;5038766;28;20394;-75
2022/12/06 13:45:31;;;;;;;;;;;;;;;;;;5025563;28;19913;-74
2022/12/06 13:48:17;;;;;;;;;;;;;;;;;;5027146;28;20030;-75
2022/12/06 13:51:04;;;;;;;;;;;;;;;;;;5032951;28;20375;-75
2022/12/06 13:53:50;;;;;;;;;;;;;;;;;;5031194;28;19947;-74
2022/12/06 13:56:37;;;;;;;;;;;;;;;;;;5033578;28;19917;-74
2022/12/06 13:59:23;;;;;;;;;;;;;;;;;;5023506;28;19916;-78
2022/12/06 14:02:12;;;;;;;;;;;;;;;;;;5015587;28;19919;-75
2022/12/06 14:04:59;;;;;;;;;;;;;;;;;;5028644;28;19917;-75
2022/12/06 14:07:45;;;;;;;;;;;;;;;;;;5015934;28;20659;-75
2022/12/06 14:10:32;;;;;;;;;;;;;;;;;;5029934;28;20612;-75
2022/12/06 14:13:18;;;;;;;;;;;;;;;;;;5036780;28;19921;-76
2022/12/06 14:16:05;;;;;;;;;;;;;;;;;;5038460;28;19927;-75
2022/12/06 14:18:51;;;;;;;;;;;;;;;;;;5043712;28;20316;-74
2022/12/06 14:21:38;;;;;;;;;;;;;;;;;;5031025;28;19924;-76
2022/12/06 14:24:24;;;;;;;;;;;;;;;;;;5030055;28;19921;-73
2022/12/06 14:27:11;;;;;;;;;;;;;;;;;;5034387;28;19941;-74
2022/12/06 14:29:57;;;;;;;;;;;;;;;;;;5036584;28;19917;-73
2022/12/06 14:32:44;;;;;;;;;;;;;;;;;;5022370;28;19928;-74
2022/12/06 14:35:34;;;;;;;;;;;;;;;;;;5035371;28;19920;-75
2022/12/06 14:38:20;;;;;;;;;;;;;;;;;;5028948;28;20380;-74
2022/12/06 14:44:14;;;;;;;;;;;;;;;;;;5032010;28;19932;-75
2022/12/06 14:47:00;;;;;;;;;;;;;;;;;;5030177;28;19909;-74
2022/12/06 14:52:52;;;;;;;;;;;;;;;;;;5034174;28;19917;-74
2022/12/06 14:55:38;;;;;;;;;;;;;;;;;;5029243;28;19971;-75
2022/12/06 14:58:25;;;;;;;;;;;;;;;;;;5034600;28;20388;-74
2022/12/06 15:01:11;;;;;;;;;;;;;;;;;;5036050;28;19917;-75
2022/12/06 15:03:58;;;;;;;;;;;;;;;;;;5032641;28;19927;-75
2022/12/06 15:06:44;;;;;;;;;;;;;;;;;;5041435;28;19916;-75
2022/12/06 15:09:31;;;;;;;;;;;;;;;;;;5035436;28;19920;-75
2022/12/06 15:15:23;;;;;;;;;;;;;;;;;;5041742;28;20308;-75
2022/12/06 15:18:09;;;;;;;;;;;;;;;;;;5029159;28;19919;-76
2022/12/06 15:20:56;;;;;;;;;;;;;;;;;;5038547;28;19927;-75
2022/12/06 15:23:42;;;;;;;;;;;;;;;;;;5036587;28;19925;-74
2022/12/06 15:26:29;;;;;;;;;;;;;;;;;;5031675;28;19924;-75
2022/12/06 15:29:15;;;;;;;;;;;;;;;;;;5039782;28;19913;-74
2022/12/06 15:32:02;;;;;;;;;;;;;;;;;;5035496;28;19917;-75
2022/12/06 15:34:48;;;;;;;;;;;;;;;;;;5037386;28;20047;-74
2022/12/06 15:37:35;;;;;;;;;;;;;;;;;;5035841;28;19917;-75
2022/12/06 15:40:21;;;;;;;;;;;;;;;;;;5034837;28;19913;-75
2022/12/06 15:43:08;;;;;;;;;;;;;;;;;;5035845;28;20703;-76
2022/12/06 15:45:54;;;;;;;;;;;;;;;;;;5027267;28;19921;-75
2022/12/06 15:48:42;;;;;;;;;;;;;;;;;;5026505;28;19924;-75
2022/12/06 15:51:28;;;;;;;;;;;;;;;;;;5038631;28;19913;-75
2022/12/06 15:54:15;;;;;;;;;;;;;;;;;;5029210;28;19929;-75
2022/12/06 15:57:01;;;;;;;;;;;;;;;;;;5034331;28;19939;-75
2022/12/06 15:59:48;;;;;;;;;;;;;;;;;;5042030;28;19921;-75
2022/12/06 16:02:35;;;;;;;;;;;;;;;;;;5038644;28;19917;-75
2022/12/06 16:05:21;;;;;;;;;;;;;;;;;;5023311;28;19917;-75
2022/12/06 16:08:08;;;;;;;;;;;;;;;;;;5035640;28;19924;-74
2022/12/06 16:10:55;;;;;;;;;;;;;;;;;;5031045;28;19924;-76
2022/12/06 16:13:41;;;;;;;;;;;;;;;;;;5042692;28;19933;-75
2022/12/06 16:16:28;;;;;;;;;;;;;;;;;;5036074;28;19927;-73
2022/12/06 16:19:14;;;;;;;;;;;;;;;;;;5039107;28;19940;-75
2022/12/06 16:22:01;;;;;;;;;;;;;;;;;;5035651;28;20368;-75
2022/12/06 16:24:47;;;;;;;;;;;;;;;;;;5022317;28;19917;-76
2022/12/06 16:27:34;;;;;;;;;;;;;;;;;;5018653;28;20266;-76
2022/12/06 16:30:20;;;;;;;;;;;;;;;;;;5013862;28;20312;-75
2022/12/06 16:33:07;;;;;;;;;;;;;;;;;;5015660;28;19920;-74
2022/12/06 16:35:53;;;;;;;;;;;;;;;;;;5018130;28;19931;-76
2022/12/06 16:38:40;;;;;;;;;;;;;;;;;;5009946;28;20416;-74
2022/12/06 16:41:27;;;;;;;;;;;;;;;;;;5011355;28;19922;-75
2022/12/06 16:44:13;;;;;;;;;;;;;;;;;;5018918;28;19923;-76
2022/12/06 16:47:00;;;;;;;;;;;;;;;;;;5012515;28;19913;-75
2022/12/06 16:49:46;;;;;;;;;;;;;;;;;;5016389;28;19913;-74
2022/12/06 16:52:34;;;;;;;;;;;;;;;;;;5011066;28;20142;-76
2022/12/06 16:55:20;;;;;;;;;;;;;;;;;;5014158;28;19925;-75
2022/12/06 16:58:07;;;;;;;;;;;;;;;;;;5006168;28;19918;-77
2022/12/06 17:00:53;;;;;;;;;;;;;;;;;;5013171;28;19924;-75
2022/12/06 17:03:40;;;;;;;;;;;;;;;;;;5016820;28;19940;-74
2022/12/06 17:06:26;;;;;;;;;;;;;;;;;;5018368;28;19928;-77
2022/12/06 17:09:13;;;;;;;;;;;;;;;;;;5013686;28;20169;-75
2022/12/06 17:12:03;;;;;;;;;;;;;;;;;;5013422;28;19943;-76
2022/12/06 17:14:49;;;;;;;;;;;;;;;;;;5014276;28;19925;-74
2022/12/06 17:17:36;;;;;;;;;;;;;;;;;;5005346;28;19914;-75
2022/12/06 17:20:22;;;;;;;;;;;;;;;;;;5015081;28;19917;-75
2022/12/06 17:23:09;;;;;;;;;;;;;;;;;;5028477;28;19944;-74
2022/12/06 17:25:56;;;;;;;;;;;;;;;;;;5035208;28;19920;-75
2022/12/06 17:28:43;;;;;;;;;;;;;;;;;;5035741;28;20296;-76
2022/12/06 17:31:29;;;;;;;;;;;;;;;;;;5029355;28;19921;-75
2022/12/06 17:34:16;;;;;;;;;;;;;;;;;;5033232;28;19925;-76
2022/12/06 17:37:03;;;;;;;;;;;;;;;;;;5036425;28;19913;-75
2022/12/06 17:39:49;;;;;;;;;;;;;;;;;;5030000;28;19925;-75
2022/12/06 17:45:44;;;;;;;;;;;;;;;;;;5030747;28;19920;-76
2022/12/06 17:48:30;;;;;;;;;;;;;;;;;;5031179;28;20034;-76
2022/12/06 17:51:17;;;;;;;;;;;;;;;;;;5041177;28;20602;-75
2022/12/06 17:54:03;;;;;;;;;;;;;;;;;;5037151;28;19933;-75
2022/12/06 17:56:50;;;;;;;;;;;;;;;;;;5034777;28;19913;-74
2022/12/06 17:59:36;;;;;;;;;;;;;;;;;;5038086;28;19939;-78
2022/12/06 18:02:24;;;;;;;;;;;;;;;;;;5025443;28;19913;-73
2022/12/06 18:05:10;;;;;;;;;;;;;;;;;;5037312;28;19917;-76
2022/12/06 18:07:57;;;;;;;;;;;;;;;;;;5031855;28;19943;-73
2022/12/06 18:10:44;;;;;;;;;;;;;;;;;;5033223;28;20296;-75
2022/12/06 18:13:30;;;;;;;;;;;;;;;;;;5035350;28;19931;-74
2022/12/06 18:16:17;;;;;;;;;;;;;;;;;;5032570;28;20617;-75
2022/12/06 18:19:03;;;;;;;;;;;;;;;;;;5033201;28;19917;-75
2022/12/06 18:21:51;;;;;;;;;;;;;;;;;;5034359;28;19917;-75
2022/12/06 18:24:38;;;;;;;;;;;;;;;;;;5031191;28;20376;-76
2022/12/06 18:27:24;;;;;;;;;;;;;;;;;;5033039;28;19916;-75
2022/12/06 18:30:11;;;;;;;;;;;;;;;;;;5037379;28;19924;-74
2022/12/06 18:32:57;;;;;;;;;;;;;;;;;;5030913;28;19928;-74
2022/12/06 18:35:44;;;;;;;;;;;;;;;;;;5033108;28;19935;-75
2022/12/06 18:38:30;;;;;;;;;;;;;;;;;;5037445;28;19921;-74
2022/12/06 18:41:17;;;;;;;;;;;;;;;;;;5036373;28;19917;-74
2022/12/06 18:44:03;;;;;;;;;;;;;;;;;;5040320;28;19916;-75
2022/12/06 18:46:50;;;;;;;;;;;;;;;;;;5035144;28;19917;-76
2022/12/06 18:49:36;;;;;;;;;;;;;;;;;;5032538;28;19921;-78
2022/12/06 18:52:23;;;;;;;;;;;;;;;;;;5038404;28;19917;-79
2022/12/06 18:55:09;;;;;;;;;;;;;;;;;;5038041;28;20645;-79
2022/12/06 18:57:56;;;;;;;;;;;;;;;;;;5044738;28;19925;-77
2022/12/06 19:00:42;;;;;;;;;;;;;;;;;;5041911;28;19932;-79
2022/12/06 19:03:29;;;;;;;;;;;;;;;;;;5039374;28;19924;-78
2022/12/06 19:06:15;;;;;;;;;;;;;;;;;;5045074;28;19924;-78
2022/12/06 19:09:02;;;;;;;;;;;;;;;;;;5038029;28;19923;-78
2022/12/06 19:11:48;;;;;;;;;;;;;;;;;;5018622;28;19930;-79
2022/12/06 19:14:35;;;;;;;;;;;;;;;;;;5036594;28;20384;-80
2022/12/06 19:17:22;;;;;;;;;;;;;;;;;;5036096;28;19917;-79
2022/12/06 19:20:09;;;;;;;;;;;;;;;;;;5034449;28;19923;-80
2022/12/06 19:22:55;;;;;;;;;;;;;;;;;;5036298;28;20664;-81
2022/12/06 19:25:42;;;;;;;;;;;;;;;;;;5039319;28;19917;-86
2022/12/06 19:28:28;;;;;;;;;;;;;;;;;;5033178;28;19921;-85
2022/12/06 19:31:15;;;;;;;;;;;;;;;;;;5039179;28;19950;-85
2022/12/06 19:34:01;;;;;;;;;;;;;;;;;;5036604;28;19920;-83